LFAQ

Albert-Bray Airport

Airport
ICAO code
LFAQ
Summary
ICAO Region
EUR
ICAO Territory
Location

, Picardie

Serving
Albert
Elevation
364 ft
Coordinates
49° 58' 18" N , 2° 41' 52" E
Metar
Observation
LFAQ 030100Z AUTO 05012KT 6000 OVC016 02/00 Q1019
Station
BRAY
Date/Time
2022-12-03 01:00:00
Wind direction
50°
Wind speed
12 kts
Lowest cloud amount
overcast
Temperature
2°C
Dew point
0°C
Humidity
86%
QNH
1019 hPa
Weather condition
n/a

Runways

Designator Length Width Surface Rops
9/27 1170 25 ASP No/No

Airport map

Aerial View

SKYbrary Partners:

Safety knowledge contributed by: